Time;durP1;ratioP1;P1;durP2;ratioP2;P2;SDS_P1;SDS_P2;PMS_P1;PMS_P2;Temp;Humidity;BMP_temperature;BMP_pressure;BME280_temperature;BME280_humidity;BME280_pressure;Samples;Min_cycle;Max_cycle;Signal;HPM_P1;HPM_P2
2021/09/18 00:00:21;;;;;;;8.05;6.30;;;;;;;13.45;79.77;99631.22;5030136;28;20065;-70
2021/09/18 00:02:46;;;;;;;7.82;6.05;;;;;;;13.44;79.82;99626.88;5028946;28;20524;-70
2021/09/18 00:05:12;;;;;;;9.02;6.55;;;;;;;13.43;80.27;99626.97;5029737;28;20638;-70
2021/09/18 00:07:37;;;;;;;10.23;6.10;;;;;;;13.42;80.09;99630.59;5030951;28;20059;-70
2021/09/18 00:10:04;;;;;;;9.05;6.65;;;;;;;13.38;80.25;99631.72;5030465;28;20471;-69
2021/09/18 00:12:29;;;;;;;8.40;7.43;;;;;;;13.36;79.93;99633.59;5029371;28;20678;-70
2021/09/18 00:14:55;;;;;;;10.23;6.95;;;;;;;13.31;80.25;99632.13;5029970;28;20029;-69
2021/09/18 00:17:20;;;;;;;9.43;7.50;;;;;;;13.32;80.37;99627.66;5030051;28;20591;-70
2021/09/18 00:19:46;;;;;;;13.50;8.45;;;;;;;13.36;80.58;99629.16;5030133;28;20026;-69
2021/09/18 00:22:11;;;;;;;10.23;8.05;;;;;;;13.36;80.14;99626.50;5029313;28;20040;-69
2021/09/18 00:24:37;;;;;;;8.40;6.28;;;;;;;13.38;80.45;99627.25;5030424;28;20040;-69
2021/09/18 00:27:04;;;;;;;8.50;7.22;;;;;;;13.35;79.97;99635.41;5029580;28;20112;-70
2021/09/18 00:29:29;;;;;;;9.07;6.80;;;;;;;13.32;80.41;99628.50;5030033;28;20099;-70
2021/09/18 00:31:55;;;;;;;7.93;6.90;;;;;;;13.31;79.78;99632.13;5029270;28;20025;-70
2021/09/18 00:34:20;;;;;;;9.13;6.68;;;;;;;13.28;80.64;99631.44;5029186;28;20033;-70
2021/09/18 00:36:45;;;;;;;8.93;8.05;;;;;;;13.26;80.23;99620.91;5029538;28;20057;-70
2021/09/18 00:39:11;;;;;;;8.52;7.45;;;;;;;13.27;80.24;99619.16;5028610;28;20040;-70
2021/09/18 00:41:36;;;;;;;13.95;8.35;;;;;;;13.24;80.21;99614.00;5028378;28;20048;-70
2021/09/18 00:44:01;;;;;;;10.05;8.57;;;;;;;13.21;80.20;99619.50;5029416;28;20059;-69
2021/09/18 00:46:27;;;;;;;8.15;7.18;;;;;;;13.20;80.56;99620.47;5028792;28;20121;-70
2021/09/18 00:48:52;;;;;;;9.15;8.15;;;;;;;13.16;80.52;99616.28;5028938;28;20038;-70
2021/09/18 00:51:19;;;;;;;11.77;7.95;;;;;;;13.14;79.94;99620.81;5030419;28;20033;-70
2021/09/18 00:53:45;;;;;;;8.35;7.50;;;;;;;13.10;80.29;99615.72;5030373;28;20192;-70
2021/09/18 00:56:11;;;;;;;15.80;9.10;;;;;;;13.09;80.19;99624.63;5030228;28;20025;-71
2021/09/18 00:58:37;;;;;;;12.73;7.80;;;;;;;13.08;80.51;99614.97;5029297;28;20048;-71
2021/09/18 01:01:03;;;;;;;11.90;9.85;;;;;;;13.11;80.57;99619.22;4992858;28;20038;-71
2021/09/18 01:03:29;;;;;;;12.30;8.88;;;;;;;13.13;80.26;99616.50;5029205;28;20047;-70
2021/09/18 01:05:58;;;;;;;12.10;7.95;;;;;;;13.10;80.30;99614.91;5027706;28;20033;-70
2021/09/18 01:08:25;;;;;;;11.15;9.88;;;;;;;13.06;80.94;99621.31;5029397;28;20029;-70
2021/09/18 01:10:51;;;;;;;11.35;8.90;;;;;;;13.09;80.37;99615.81;5028266;28;20029;-70
2021/09/18 01:13:18;;;;;;;11.18;8.73;;;;;;;13.01;80.43;99616.31;5028305;28;20041;-70
2021/09/18 01:15:44;;;;;;;13.90;10.55;;;;;;;12.96;80.75;99621.03;5024620;28;20045;-70
2021/09/18 01:18:10;;;;;;;10.73;9.63;;;;;;;12.93;81.13;99620.38;5029136;28;20039;-69
2021/09/18 01:20:36;;;;;;;10.95;9.35;;;;;;;12.96;80.98;99618.38;5027811;28;20087;-69
2021/09/18 01:23:04;;;;;;;16.75;11.55;;;;;;;12.96;80.85;99620.19;5046984;28;20381;-69
2021/09/18 01:25:32;;;;;;;14.35;11.38;;;;;;;12.98;80.47;99618.31;5048627;28;20036;-69
2021/09/18 01:27:58;;;;;;;10.27;8.38;;;;;;;13.00;80.60;99627.84;5048638;28;20033;-69
2021/09/18 01:30:27;;;;;;;10.88;9.60;;;;;;;13.02;80.02;99625.09;5048686;28;20152;-70
2021/09/18 01:32:53;;;;;;;9.73;8.52;;;;;;;13.03;79.84;99624.16;5047804;28;20071;-69
2021/09/18 01:35:19;;;;;;;12.27;8.88;;;;;;;13.02;80.38;99633.91;5048399;28;20128;-69
2021/09/18 01:37:47;;;;;;;14.93;10.35;;;;;;;13.00;80.31;99630.50;5048416;28;20112;-69
2021/09/18 01:40:27;;;;;;;10.30;9.07;;;;;;;13.01;80.47;99626.88;5048375;28;20369;-69
2021/09/18 01:42:53;;;;;;;10.32;8.93;;;;;;;13.00;80.77;99632.28;5047821;28;20407;-69
2021/09/18 01:45:19;;;;;;;10.15;8.18;;;;;;;13.02;80.79;99633.03;5048778;28;20051;-70
2021/09/18 01:47:48;;;;;;;9.95;7.75;;;;;;;13.03;80.30;99629.44;5048860;28;20106;-70
2021/09/18 01:50:28;;;;;;;13.45;8.70;;;;;;;12.99;80.85;99626.13;5047754;28;20144;-69
2021/09/18 01:52:57;;;;;;;12.77;11.48;;;;;;;12.88;80.21;99626.78;5046849;28;20048;-70
2021/09/18 01:55:23;;;;;;;12.20;10.23;;;;;;;12.86;80.41;99619.91;5049546;28;20044;-70
2021/09/18 01:57:51;;;;;;;10.48;8.82;;;;;;;12.80;80.53;99622.94;5050385;28;20048;-69
2021/09/18 02:00:17;;;;;;;11.13;9.77;;;;;;;12.78;80.79;99619.53;5050410;28;20522;-69
2021/09/18 02:02:43;;;;;;;12.27;10.77;;;;;;;12.72;80.86;99618.09;5049781;28;20036;-69
2021/09/18 02:05:10;;;;;;;12.05;10.77;;;;;;;12.72;80.80;99627.81;5050464;28;20085;-69
2021/09/18 02:07:36;;;;;;;11.90;10.45;;;;;;;12.72;80.62;99623.38;5050746;28;20059;-70
2021/09/18 02:10:12;;;;;;;12.73;8.68;;;;;;;12.72;80.68;99623.38;5050498;28;20469;-70
2021/09/18 02:12:38;;;;;;;11.02;8.55;;;;;;;12.73;80.83;99621.59;5040100;28;20136;-70
2021/09/18 02:15:05;;;;;;;15.73;9.98;;;;;;;12.73;80.43;99618.97;5050848;28;20457;-70
2021/09/18 02:17:30;;;;;;;12.60;10.10;;;;;;;12.62;80.60;99631.00;5049982;28;20476;-70
2021/09/18 02:19:55;;;;;;;13.73;10.73;;;;;;;12.58;80.91;99618.94;5049898;28;20037;-70
2021/09/18 02:22:21;;;;;;;12.35;10.00;;;;;;;12.50;81.19;99615.88;5047836;28;20025;-70
2021/09/18 02:24:46;;;;;;;12.38;10.20;;;;;;;12.49;81.14;99616.84;5048309;28;20040;-70
2021/09/18 02:27:12;;;;;;;12.60;7.70;;;;;;;12.49;81.26;99618.63;5050238;28;20033;-70
2021/09/18 02:29:37;;;;;;;9.85;8.60;;;;;;;12.51;80.69;99607.03;5051892;28;20032;-70
2021/09/18 02:32:03;;;;;;;15.35;11.30;;;;;;;12.52;80.97;99606.06;5049598;28;20033;-70
2021/09/18 02:34:28;;;;;;;15.60;13.52;;;;;;;12.44;81.16;99603.88;5051950;28;20033;-70
2021/09/18 02:36:54;;;;;;;9.63;8.43;;;;;;;12.44;81.43;99597.75;5049931;28;20111;-69
2021/09/18 02:39:19;;;;;;;15.82;11.30;;;;;;;12.45;80.76;99602.09;5051934;28;20041;-69
2021/09/18 02:41:44;;;;;;;17.75;11.52;;;;;;;12.42;81.58;99602.28;5050804;28;20037;-70
2021/09/18 02:44:10;;;;;;;14.38;9.95;;;;;;;12.38;81.83;99604.28;5051412;28;20040;-70
2021/09/18 02:46:35;;;;;;;16.95;10.45;;;;;;;12.42;81.06;99603.13;5052127;28;20119;-70
2021/09/18 02:49:00;;;;;;;10.43;8.45;;;;;;;12.45;80.94;99602.97;5051308;28;20033;-70
2021/09/18 02:51:26;;;;;;;11.88;9.00;;;;;;;12.48;80.99;99601.06;5051182;28;20491;-69
2021/09/18 02:53:52;;;;;;;16.90;12.57;;;;;;;12.43;80.69;99599.56;5051569;28;20457;-69
2021/09/18 02:56:17;;;;;;;13.60;11.18;;;;;;;12.34;81.17;99601.91;5051287;28;20566;-70
2021/09/18 02:58:43;;;;;;;11.38;10.18;;;;;;;12.29;80.95;99602.16;5051469;28;20037;-69
2021/09/18 03:01:08;;;;;;;16.77;12.32;;;;;;;12.27;80.84;99601.41;5049102;28;20040;-69
2021/09/18 03:03:33;;;;;;;12.63;10.43;;;;;;;12.21;81.85;99597.34;5051921;28;20033;-69
2021/09/18 03:05:58;;;;;;;15.25;11.82;;;;;;;12.22;81.23;99596.38;5052143;28;20063;-69
2021/09/18 03:08:24;;;;;;;14.32;12.63;;;;;;;12.20;81.50;99600.91;5055327;28;20056;-69
2021/09/18 03:10:49;;;;;;;14.55;11.15;;;;;;;12.20;81.41;99595.63;5051570;28;20040;-70
2021/09/18 03:13:15;;;;;;;16.33;11.98;;;;;;;12.17;81.80;99592.31;5055435;28;20603;-69
2021/09/18 03:15:40;;;;;;;14.98;12.40;;;;;;;12.13;81.66;99591.63;5060234;28;20171;-69
2021/09/18 03:18:05;;;;;;;19.08;13.13;;;;;;;12.13;81.28;99585.50;5058663;28;20567;-70
2021/09/18 03:20:31;;;;;;;14.07;12.48;;;;;;;12.09;81.74;99587.47;5054692;28;20037;-70
2021/09/18 03:22:56;;;;;;;10.98;9.18;;;;;;;12.12;82.04;99584.66;5051277;28;20029;-69
2021/09/18 03:25:22;;;;;;;12.93;10.10;;;;;;;12.15;81.58;99581.81;5051528;28;20461;-70
2021/09/18 03:27:47;;;;;;;13.60;10.20;;;;;;;12.17;81.30;99582.59;5051898;28;20119;-69
2021/09/18 03:30:13;;;;;;;13.68;10.23;;;;;;;12.18;80.76;99581.66;5051045;28;20036;-70
2021/09/18 03:32:39;;;;;;;14.68;11.98;;;;;;;12.09;81.54;99584.84;5048724;28;20431;-69
2021/09/18 03:35:05;;;;;;;15.50;12.82;;;;;;;12.06;81.46;99581.50;5048277;28;20087;-69
2021/09/18 03:37:34;;;;;;;17.30;13.77;;;;;;;12.01;81.39;99581.78;5050794;28;20033;-69
2021/09/18 03:40:00;;;;;;;13.10;10.98;;;;;;;12.05;81.29;99583.31;5050603;28;20119;-70
2021/09/18 03:42:25;;;;;;;16.05;10.25;;;;;;;12.10;81.87;99599.75;5049754;28;20033;-69
2021/09/18 03:44:51;;;;;;;12.55;9.70;;;;;;;12.15;81.36;99584.47;5050845;28;20040;-69
2021/09/18 03:47:16;;;;;;;10.85;9.27;;;;;;;12.19;81.39;99579.88;5050581;28;20140;-69
2021/09/18 03:49:42;;;;;;;17.10;12.98;;;;;;;12.13;80.95;99583.69;5036821;28;20032;-68
2021/09/18 03:52:07;;;;;;;12.30;10.77;;;;;;;12.13;81.37;99583.69;5055092;28;20470;-69
2021/09/18 03:54:32;;;;;;;15.63;13.05;;;;;;;12.10;81.40;99590.97;5049626;28;20033;-69
2021/09/18 03:56:58;;;;;;;15.65;12.43;;;;;;;12.04;81.77;99586.91;5046722;28;20041;-69
2021/09/18 03:59:23;;;;;;;11.48;10.15;;;;;;;12.03;81.04;99590.47;5048161;28;20036;-69
2021/09/18 04:01:49;;;;;;;15.82;12.85;;;;;;;12.00;81.21;99588.84;5060257;28;20029;-69
2021/09/18 04:04:14;;;;;;;14.15;11.98;;;;;;;11.96;82.20;99586.47;5069075;28;20028;-69
2021/09/18 04:06:39;;;;;;;13.48;9.90;;;;;;;11.99;81.26;99592.47;5070092;28;20371;-69
2021/09/18 04:09:05;;;;;;;13.68;11.00;;;;;;;12.01;81.82;99590.59;5070544;28;20035;-69
2021/09/18 04:11:30;;;;;;;14.38;11.00;;;;;;;11.99;81.40;99592.47;5069685;28;20126;-69
2021/09/18 04:13:56;;;;;;;11.60;9.55;;;;;;;12.00;81.51;99595.94;5069762;28;20090;-69
2021/09/18 04:16:22;;;;;;;15.05;11.85;;;;;;;11.95;81.54;99596.22;5069838;28;20033;-69
2021/09/18 04:18:48;;;;;;;14.40;11.70;;;;;;;11.93;81.45;99597.22;5069883;28;20488;-69
2021/09/18 04:21:13;;;;;;;18.75;12.32;;;;;;;11.91;81.90;99601.75;5068967;28;20146;-69
2021/09/18 04:23:39;;;;;;;13.48;9.35;;;;;;;11.96;82.09;99597.94;5070428;28;20514;-70
2021/09/18 04:26:04;;;;;;;18.15;12.60;;;;;;;11.96;81.72;99594.41;5069726;28;20040;-69
2021/09/18 04:28:30;;;;;;;17.92;12.38;;;;;;;11.95;81.74;99604.13;5069930;28;20037;-69
2021/09/18 04:30:55;;;;;;;12.68;11.38;;;;;;;11.92;81.39;99606.13;5069157;28;20460;-69
2021/09/18 04:33:21;;;;;;;13.73;9.93;;;;;;;11.90;81.52;99600.06;5069079;28;20033;-69
2021/09/18 04:35:46;;;;;;;15.05;10.68;;;;;;;11.88;81.47;99597.50;5069273;28;20052;-69
2021/09/18 04:38:11;;;;;;;14.38;11.02;;;;;;;11.92;81.30;99603.47;5069628;28;20052;-70
2021/09/18 04:40:37;;;;;;;15.85;12.60;;;;;;;11.90;81.36;99603.53;5069944;28;20039;-69
2021/09/18 04:43:02;;;;;;;13.95;12.18;;;;;;;11.89;81.38;99606.25;5068396;28;20082;-69
2021/09/18 04:45:28;;;;;;;12.00;10.30;;;;;;;11.87;81.87;99602.88;5069126;28;20514;-69
2021/09/18 04:47:53;;;;;;;13.38;11.20;;;;;;;11.87;81.49;99605.53;5068995;28;20559;-69
2021/09/18 04:50:19;;;;;;;13.63;11.55;;;;;;;11.88;81.32;99608.06;5067842;28;20032;-70
2021/09/18 04:52:44;;;;;;;15.73;11.52;;;;;;;11.87;81.32;99610.81;5066085;28;20039;-70
2021/09/18 04:55:09;;;;;;;14.85;12.55;;;;;;;11.83;81.85;99612.72;5069707;28;20063;-69
2021/09/18 04:57:35;;;;;;;13.60;9.88;;;;;;;11.79;81.50;99614.72;5068155;28;20384;-69
2021/09/18 05:00:00;;;;;;;16.23;10.68;;;;;;;11.76;81.84;99614.00;5068753;28;20467;-69
2021/09/18 05:02:25;;;;;;;12.82;10.93;;;;;;;11.75;81.47;99618.44;5067937;28;20385;-70
2021/09/18 05:04:51;;;;;;;15.27;12.88;;;;;;;11.71;82.04;99619.56;5067517;28;20561;-69
2021/09/18 05:07:16;;;;;;;15.38;10.82;;;;;;;11.69;81.54;99615.28;5068453;28;20044;-70
2021/09/18 05:09:41;;;;;;;12.55;10.98;;;;;;;11.69;81.98;99628.50;5067128;28;20036;-69
2021/09/18 05:12:07;;;;;;;13.60;10.55;;;;;;;11.65;81.87;99617.28;5068583;28;20043;-69
2021/09/18 05:14:33;;;;;;;13.05;11.05;;;;;;;11.65;81.89;99630.47;5069017;28;20032;-69
2021/09/18 05:16:58;;;;;;;13.80;11.10;;;;;;;11.66;81.86;99626.03;5069142;28;20388;-69
2021/09/18 05:19:24;;;;;;;14.95;11.30;;;;;;;11.68;81.62;99632.94;5068764;28;20415;-69
2021/09/18 05:21:49;;;;;;;12.90;11.55;;;;;;;11.70;81.61;99631.06;5068160;28;20457;-69
2021/09/18 05:24:14;;;;;;;12.77;11.18;;;;;;;11.69;82.09;99637.31;5067441;28;20463;-69
2021/09/18 05:26:40;;;;;;;14.38;9.68;;;;;;;11.71;81.75;99627.47;5069158;28;20043;-69
2021/09/18 05:29:05;;;;;;;10.48;8.70;;;;;;;11.74;81.45;99629.09;5067607;28;20040;-69
2021/09/18 05:31:30;;;;;;;11.60;10.00;;;;;;;11.74;81.63;99631.72;5066386;28;20043;-69
2021/09/18 05:33:56;;;;;;;20.35;12.98;;;;;;;11.71;81.55;99629.28;5068593;28;20028;-69
2021/09/18 05:36:22;;;;;;;13.52;9.80;;;;;;;11.72;82.10;99629.19;5067070;28;20044;-69
2021/09/18 05:38:47;;;;;;;17.63;14.75;;;;;;;11.72;81.66;99631.00;5068665;28;20059;-69
2021/09/18 05:41:13;;;;;;;11.60;9.82;;;;;;;11.75;81.38;99626.38;5067810;28;20067;-70
2021/09/18 05:43:38;;;;;;;15.63;11.82;;;;;;;11.77;81.36;99629.78;5068632;28;20035;-69
2021/09/18 05:46:04;;;;;;;12.38;10.18;;;;;;;11.78;81.68;99630.63;5068165;28;20032;-70
2021/09/18 05:48:29;;;;;;;15.25;10.02;;;;;;;11.80;81.77;99634.88;5068322;28;20167;-70
2021/09/18 05:50:54;;;;;;;13.43;9.60;;;;;;;11.86;81.39;99638.13;5067607;28;20090;-70
2021/09/18 05:53:19;;;;;;;12.77;9.20;;;;;;;11.90;81.24;99644.97;5067915;28;20526;-69
2021/09/18 05:55:45;;;;;;;13.10;9.80;;;;;;;11.94;80.96;99641.22;5068670;28;20060;-69
2021/09/18 05:58:10;;;;;;;14.80;9.85;;;;;;;11.96;80.88;99648.13;5068931;28;20107;-68
2021/09/18 06:00:36;;;;;;;11.70;10.13;;;;;;;12.00;80.88;99646.13;5065043;28;20094;-69
2021/09/18 06:03:01;;;;;;;12.05;10.77;;;;;;;12.00;81.09;99646.13;5071146;28;20029;-69
2021/09/18 06:05:26;;;;;;;11.20;8.50;;;;;;;12.04;81.08;99647.69;5072326;28;20135;-69
2021/09/18 06:07:52;;;;;;;12.30;10.20;;;;;;;12.09;81.11;99655.34;5072496;28;20048;-69
2021/09/18 06:10:17;;;;;;;11.18;9.05;;;;;;;12.12;81.28;99660.44;5071810;28;20055;-70
2021/09/18 06:12:43;;;;;;;11.40;9.57;;;;;;;12.15;80.49;99658.47;5069976;28;20109;-70
2021/09/18 06:15:09;;;;;;;13.13;10.00;;;;;;;12.21;80.89;99658.13;5072401;28;20036;-69
2021/09/18 06:17:34;;;;;;;13.30;9.13;;;;;;;12.26;80.53;99652.56;5071776;28;20028;-70
2021/09/18 06:19:59;;;;;;;10.77;9.23;;;;;;;12.30;81.00;99655.88;5072480;28;20147;-70
2021/09/18 06:22:24;;;;;;;13.48;10.45;;;;;;;12.37;80.71;99657.22;5071355;28;20047;-70
2021/09/18 06:24:50;;;;;;;14.73;10.20;;;;;;;12.40;80.73;99659.69;5071805;28;20028;-70
2021/09/18 06:27:15;;;;;;;12.57;10.25;;;;;;;12.46;80.75;99654.03;5072286;28;20115;-69
2021/09/18 06:29:41;;;;;;;15.38;10.55;;;;;;;12.52;80.88;99658.94;5072176;28;20054;-70
2021/09/18 06:32:09;;;;;;;12.05;9.60;;;;;;;12.60;80.35;99650.56;5071593;28;20039;-70
2021/09/18 06:34:35;;;;;;;12.63;10.52;;;;;;;12.68;80.69;99654.47;5071323;28;20496;-70
2021/09/18 06:37:01;;;;;;;12.02;10.20;;;;;;;12.79;80.17;99658.25;5071861;28;23560;-70
2021/09/18 06:39:26;;;;;;;12.57;10.27;;;;;;;12.86;80.50;99663.06;5071833;28;20133;-70
2021/09/18 06:41:51;;;;;;;15.40;11.52;;;;;;;12.95;80.23;99658.19;5070657;28;20178;-69
2021/09/18 06:44:17;;;;;;;15.07;10.07;;;;;;;13.04;79.69;99662.91;5068921;28;20040;-70
2021/09/18 06:46:42;;;;;;;14.45;11.45;;;;;;;13.08;80.13;99659.97;5070530;28;20037;-70
2021/09/18 06:49:07;;;;;;;13.27;10.98;;;;;;;13.21;79.26;99664.50;5071514;28;20119;-70
2021/09/18 06:51:33;;;;;;;15.63;10.13;;;;;;;13.30;79.77;99664.81;5070996;28;20557;-70
2021/09/18 06:53:58;;;;;;;14.35;10.90;;;;;;;13.41;79.47;99665.94;5070118;28;20037;-69
2021/09/18 06:56:23;;;;;;;13.57;12.15;;;;;;;13.50;79.03;99662.72;5071295;28;20064;-70
2021/09/18 06:58:49;;;;;;;13.27;10.68;;;;;;;13.62;78.94;99663.75;5071550;28;20033;-70
2021/09/18 07:01:14;;;;;;;18.35;13.63;;;;;;;13.73;78.63;99667.41;5070705;28;20040;-70
2021/09/18 07:03:40;;;;;;;11.93;9.50;;;;;;;13.90;78.47;99671.59;5072006;28;20086;-70
2021/09/18 07:06:05;;;;;;;10.38;8.80;;;;;;;14.03;77.95;99665.50;5070843;28;20089;-70
2021/09/18 07:08:30;;;;;;;15.25;10.60;;;;;;;14.14;78.08;99668.31;5071451;28;20062;-70
2021/09/18 07:10:56;;;;;;;13.82;9.98;;;;;;;14.23;77.90;99659.75;5071040;28;20629;-70
2021/09/18 07:13:21;;;;;;;11.40;9.90;;;;;;;14.33;77.56;99668.78;5069710;28;20056;-70
2021/09/18 07:15:47;;;;;;;11.90;8.98;;;;;;;14.42;77.68;99667.31;5069812;28;20459;-70
2021/09/18 07:18:12;;;;;;;11.55;9.70;;;;;;;14.52;77.43;99672.84;5069544;28;20457;-70
2021/09/18 07:20:37;;;;;;;17.20;12.77;;;;;;;14.62;77.00;99666.03;5069990;28;20048;-70
2021/09/18 07:23:03;;;;;;;30.17;14.63;;;;;;;14.72;77.13;99669.75;5068887;28;20033;-70
2021/09/18 07:25:28;;;;;;;15.65;11.35;;;;;;;14.83;77.12;99671.66;5070509;28;20067;-70
2021/09/18 07:27:54;;;;;;;11.52;10.32;;;;;;;14.94;76.73;99670.91;5071512;28;20028;-70
2021/09/18 07:30:20;;;;;;;12.23;10.38;;;;;;;15.05;76.79;99668.38;5071156;28;20036;-70
2021/09/18 07:32:45;;;;;;;13.85;9.65;;;;;;;15.18;76.31;99671.84;5070642;28;20125;-70
2021/09/18 07:35:11;;;;;;;14.77;12.73;;;;;;;15.33;75.82;99674.38;5072308;28;20028;-70
2021/09/18 07:37:38;;;;;;;21.92;12.07;;;;;;;15.47;75.72;99668.94;5069854;28;20136;-71
2021/09/18 07:40:07;;;;;;;15.55;11.55;;;;;;;15.62;75.46;99664.34;5070820;28;20033;-70
2021/09/18 07:42:32;;;;;;;16.95;11.93;;;;;;;15.75;75.04;99670.50;5069867;28;20120;-70
2021/09/18 07:44:58;;;;;;;11.93;10.73;;;;;;;15.86;74.67;99672.38;5070699;28;20108;-70
2021/09/18 07:47:23;;;;;;;14.77;9.43;;;;;;;16.01;74.65;99675.72;5070319;28;20299;-70
2021/09/18 07:49:49;;;;;;;9.63;8.63;;;;;;;16.15;74.46;99672.06;5070698;28;20037;-70
2021/09/18 07:52:16;;;;;;;20.08;14.95;;;;;;;16.31;73.42;99680.56;5070297;28;20436;-69
2021/09/18 07:54:41;;;;;;;15.60;11.45;;;;;;;16.45;73.58;99679.56;5068087;28;20047;-70
2021/09/18 07:57:07;;;;;;;16.67;12.50;;;;;;;16.61;72.88;99679.22;5070723;28;20125;-69
2021/09/18 07:59:32;;;;;;;22.00;13.65;;;;;;;16.70;72.83;99670.53;5070848;28;20372;-69
2021/09/18 08:01:58;;;;;;;24.15;21.17;;;;;;;16.79;71.51;99677.03;5069921;28;20123;-68
2021/09/18 08:04:23;;;;;;;22.10;16.63;;;;;;;16.88;71.23;99684.28;5070065;28;20037;-71
2021/09/18 08:06:48;;;;;;;18.38;16.42;;;;;;;16.99;70.71;99681.66;5070775;28;20032;-69
2021/09/18 08:09:13;;;;;;;20.98;15.38;;;;;;;17.13;71.39;99675.22;5070461;28;20043;-71
2021/09/18 08:11:39;;;;;;;18.30;15.23;;;;;;;17.25;70.22;99678.75;5069863;28;20090;-69
2021/09/18 08:14:04;;;;;;;20.02;16.13;;;;;;;17.35;69.03;99677.94;5070163;28;20044;-70
2021/09/18 08:16:30;;;;;;;18.67;14.63;;;;;;;17.50;69.20;99685.66;5069731;28;20127;-69
2021/09/18 08:18:55;;;;;;;18.98;13.82;;;;;;;17.66;68.28;99683.47;5070120;28;20040;-70
2021/09/18 08:21:22;;;;;;;19.90;17.83;;;;;;;17.83;67.63;99684.81;5069252;28;20472;-69
2021/09/18 08:23:47;;;;;;;19.83;14.82;;;;;;;17.98;68.00;99688.03;5067706;28;20082;-69
2021/09/18 08:26:13;;;;;;;32.08;17.25;;;;;;;18.12;66.80;99681.59;5069582;28;20024;-69
2021/09/18 08:28:39;;;;;;;42.65;20.63;;;;;;;18.19;66.22;99686.28;5070044;28;20402;-69
2021/09/18 08:31:05;;;;;;;34.00;21.38;;;;;;;18.23;65.84;99686.88;5069171;28;20465;-70
2021/09/18 08:33:31;;;;;;;35.78;20.05;;;;;;;18.32;66.86;99685.28;5069882;28;20550;-70
2021/09/18 08:35:57;;;;;;;29.85;20.90;;;;;;;18.43;65.71;99683.41;5070437;28;20033;-70
2021/09/18 08:38:24;;;;;;;17.02;15.20;;;;;;;18.57;65.67;99687.56;5070092;28;20381;-70
2021/09/18 08:40:51;;;;;;;29.52;19.55;;;;;;;18.71;65.45;99682.91;5069709;28;20123;-69
2021/09/18 08:43:18;;;;;;;20.33;17.95;;;;;;;18.86;64.73;99689.63;5069973;28;20045;-70
2021/09/18 08:45:44;;;;;;;26.65;19.30;;;;;;;18.92;64.50;99689.09;5069662;28;20420;-71
2021/09/18 08:48:10;;;;;;;24.23;21.40;;;;;;;19.00;64.23;99691.97;5070201;28;20040;-71
2021/09/18 08:50:36;;;;;;;22.02;17.67;;;;;;;19.13;64.83;99696.25;5065034;28;20097;-71
2021/09/18 08:53:02;;;;;;;31.52;24.60;;;;;;;19.26;63.35;99686.19;5069103;28;20056;-69
2021/09/18 08:55:28;;;;;;;30.05;26.20;;;;;;;19.67;61.41;99698.63;5069011;28;20037;-70
2021/09/18 08:57:54;;;;;;;33.72;26.02;;;;;;;20.25;60.04;99687.19;5069503;28;20035;-70
2021/09/18 09:00:34;;;;;;;30.02;23.10;;;;;;;20.92;58.83;99690.84;5068864;28;20041;-70
2021/09/18 09:03:03;;;;;;;28.45;23.80;;;;;;;21.65;56.49;99688.34;5065629;28;20157;-69
2021/09/18 09:05:33;;;;;;;29.45;25.35;;;;;;;22.39;53.87;99691.00;5065816;28;20056;-72
2021/09/18 09:08:16;;;;;;;31.60;25.48;;;;;;;23.18;51.59;99687.44;5068816;28;20411;-68
2021/09/18 09:10:44;;;;;;;36.38;26.50;;;;;;;23.70;50.30;99691.88;5056083;28;20060;-70
2021/09/18 09:13:15;;;;;;;28.75;25.65;;;;;;;24.22;49.03;99689.06;5060644;28;20131;-70
2021/09/18 09:15:43;;;;;;;30.23;26.58;;;;;;;24.78;46.26;99687.38;5064422;28;20360;-71
2021/09/18 09:18:23;;;;;;;33.50;28.23;;;;;;;25.19;44.87;99684.69;5068975;28;20039;-70
2021/09/18 09:21:06;;;;;;;35.00;30.02;;;;;;;25.29;44.38;99681.78;5067801;28;20495;-69
2021/09/18 09:23:33;;;;;;;33.05;29.63;;;;;;;25.22;43.38;99686.19;5070871;28;20039;-70
2021/09/18 09:25:58;;;;;;;32.03;28.73;;;;;;;25.39;43.80;99679.72;5071526;28;20032;-71
2021/09/18 09:28:29;;;;;;;34.28;29.30;;;;;;;25.60;42.98;99683.72;5069077;28;20094;-71
2021/09/18 09:31:01;;;;;;;21.92;19.48;;;;;;;26.35;42.43;99672.31;5068460;28;20082;-69
2021/09/18 09:33:27;;;;;;;25.55;22.63;;;;;;;26.62;41.36;99678.22;5068658;28;20041;-70
2021/09/18 09:35:52;;;;;;;25.77;21.10;;;;;;;27.12;40.42;99672.16;5069448;28;20082;-70
2021/09/18 09:38:18;;;;;;;26.48;23.77;;;;;;;27.21;39.55;99672.09;5068871;28;20040;-70
2021/09/18 09:40:45;;;;;;;26.20;23.52;;;;;;;27.09;39.42;99680.63;5067870;28;20037;-69
2021/09/18 09:43:12;;;;;;;28.95;25.98;;;;;;;27.12;39.02;99677.59;5068616;28;20024;-70
2021/09/18 09:45:39;;;;;;;23.25;20.83;;;;;;;27.29;39.39;99674.72;5065221;28;20032;-70
2021/09/18 09:48:14;;;;;;;22.80;20.55;;;;;;;27.37;38.76;99674.63;5067746;28;20101;-73
2021/09/18 09:50:42;;;;;;;22.77;16.73;;;;;;;27.99;38.03;99674.19;5068295;28;20830;-69
2021/09/18 09:53:23;;;;;;;21.90;18.50;;;;;;;28.20;36.54;99670.66;5067638;28;20111;-69
2021/09/18 09:55:49;;;;;;;18.52;16.45;;;;;;;28.36;36.44;99666.03;5066987;28;20035;-70
2021/09/18 09:58:14;;;;;;;20.33;18.27;;;;;;;28.38;36.10;99662.09;5069193;28;20384;-69
2021/09/18 10:00:51;;;;;;;23.35;20.90;;;;;;;28.51;35.46;99669.53;5068941;28;20079;-69
2021/09/18 10:03:25;;;;;;;21.15;18.40;;;;;;;27.92;36.58;99669.72;5068567;28;20426;-70
2021/09/18 10:05:53;;;;;;;20.50;18.40;;;;;;;27.37;37.63;99666.50;5067953;28;20439;-69
2021/09/18 10:08:23;;;;;;;16.08;13.25;;;;;;;28.00;37.13;99669.59;5069279;28;20032;-69
2021/09/18 10:10:50;;;;;;;21.73;18.17;;;;;;;28.20;36.79;99654.38;5068613;28;20048;-69
2021/09/18 10:13:17;;;;;;;18.67;15.65;;;;;;;28.42;35.76;99657.09;5068396;28;20044;-70
2021/09/18 10:15:43;;;;;;;19.13;15.75;;;;;;;28.69;36.04;99659.03;5068186;28;20036;-70
2021/09/18 10:18:09;;;;;;;19.45;17.25;;;;;;;28.83;35.13;99664.56;5068362;28;20086;-68
2021/09/18 10:23:18;;;;;;;25.17;18.25;;;;;;;28.20;35.52;99659.81;5067619;28;20037;-70
2021/09/18 10:25:56;;;;;;;16.90;15.10;;;;;;;27.45;37.28;99661.00;5068233;28;20025;-70
2021/09/18 10:28:23;;;;;;;25.92;18.08;;;;;;;27.19;37.70;99656.88;5068135;28;20040;-70
2021/09/18 10:30:51;;;;;;;19.35;16.13;;;;;;;25.88;40.27;99660.63;5068180;28;20143;-68
2021/09/18 10:33:35;;;;;;;20.75;17.02;;;;;;;25.84;40.69;99656.59;5068039;28;20062;-70
2021/09/18 10:36:29;;;;;;;23.40;19.45;;;;;;;25.39;41.34;99654.59;5067796;28;20098;-70
2021/09/18 10:39:17;;;;;;;20.00;16.85;;;;;;;25.13;41.48;99644.00;5068170;28;20033;-70
2021/09/18 10:41:52;;;;;;;19.98;17.88;;;;;;;24.82;42.27;99647.47;5065980;28;20039;-71
2021/09/18 10:44:19;;;;;;;29.38;17.60;;;;;;;24.79;43.13;99639.72;5063024;28;20044;-70
2021/09/18 10:46:52;;;;;;;21.42;16.52;;;;;;;24.51;43.66;99645.44;5067753;28;20136;-69
2021/09/18 10:52:16;;;;;;;22.48;17.05;;;;;;;24.14;43.51;99638.66;5071579;28;20051;-69
2021/09/18 10:57:42;;;;;;;21.52;16.48;;;;;;;23.79;45.49;99639.78;5070437;28;20036;-69
2021/09/18 11:00:07;;;;;;;22.55;18.38;;;;;;;23.68;46.00;99634.69;5071585;28;20101;-70
2021/09/18 11:02:33;;;;;;;22.92;17.58;;;;;;;23.54;46.04;99634.31;5070313;28;20438;-71
2021/09/18 11:05:03;;;;;;;23.45;19.45;;;;;;;23.50;46.39;99634.78;5071560;28;20546;-69
2021/09/18 11:07:41;;;;;;;28.75;20.20;;;;;;;23.15;47.18;99633.97;5070980;28;20029;-69
2021/09/18 11:10:08;;;;;;;28.10;19.90;;;;;;;22.79;48.00;99630.53;5071080;28;20032;-70
2021/09/18 11:12:34;;;;;;;27.98;18.40;;;;;;;22.68;48.25;99634.31;5070017;28;20078;-71
2021/09/18 11:15:08;;;;;;;22.45;18.65;;;;;;;22.92;47.97;99630.97;5070446;28;20064;-70
2021/09/18 11:17:37;;;;;;;23.33;18.70;;;;;;;22.75;47.96;99630.00;5071443;28;20037;-70
2021/09/18 11:20:17;;;;;;;19.35;17.35;;;;;;;22.69;47.26;99630.63;5071087;28;20800;-70
2021/09/18 11:22:43;;;;;;;18.58;15.77;;;;;;;22.88;47.90;99630.41;5070305;28;20036;-70
2021/09/18 11:25:32;;;;;;;24.85;19.50;;;;;;;22.71;48.05;99626.78;5071108;28;20074;-70